sensor_id;sensor_type;location;lat;lon;timestamp;pressure;altitude;pressure_sealevel;temperature;humidity
49341;BME280;35209;51.050;13.678;2023-05-10T00:04:33;99472.81;;;12.63;52.06
49341;BME280;35209;51.050;13.678;2023-05-10T00:09:35;99472.59;;;12.68;52.04
49341;BME280;35209;51.050;13.678;2023-05-10T00:14:37;99460.84;;;12.56;52.29
49341;BME280;35209;51.050;13.678;2023-05-10T00:19:38;99457.22;;;12.59;52.47
49341;BME280;35209;51.050;13.678;2023-05-10T00:24:40;99460.00;;;12.56;52.68
49341;BME280;35209;51.050;13.678;2023-05-10T00:29:41;99452.78;;;12.42;53.37
49341;BME280;35209;51.050;13.678;2023-05-10T00:34:43;99449.97;;;12.28;53.80
49341;BME280;35209;51.050;13.678;2023-05-10T00:39:45;99439.06;;;12.35;53.54
49341;BME280;35209;51.050;13.678;2023-05-10T00:44:47;99442.19;;;12.25;53.80
49341;BME280;35209;51.050;13.678;2023-05-10T00:49:49;99433.78;;;12.17;53.91
49341;BME280;35209;51.050;13.678;2023-05-10T00:54:52;99437.81;;;12.06;54.54
49341;BME280;35209;51.050;13.678;2023-05-10T00:59:54;99435.69;;;11.96;54.96
49341;BME280;35209;51.050;13.678;2023-05-10T01:04:55;99439.06;;;11.79;55.21
49341;BME280;35209;51.050;13.678;2023-05-10T01:09:57;99423.63;;;11.90;54.83
49341;BME280;35209;51.050;13.678;2023-05-10T01:15:00;99427.41;;;12.03;54.30
49341;BME280;35209;51.050;13.678;2023-05-10T01:20:03;99428.91;;;11.90;54.78
49341;BME280;35209;51.050;13.678;2023-05-10T01:36:51;99419.38;;;11.69;55.40
49341;BME280;35209;51.050;13.678;2023-05-10T01:46:28;99419.75;;;11.41;56.40
49341;BME280;35209;51.050;13.678;2023-05-10T01:51:50;99415.22;;;11.44;56.18
49341;BME280;35209;51.050;13.678;2023-05-10T01:56:59;99420.91;;;11.54;55.83
49341;BME280;35209;51.050;13.678;2023-05-10T02:02:02;99415.53;;;11.36;56.35
49341;BME280;35209;51.050;13.678;2023-05-10T02:07:06;99408.25;;;11.43;56.40
49341;BME280;35209;51.050;13.678;2023-05-10T02:12:08;99417.84;;;11.44;56.28
49341;BME280;35209;51.050;13.678;2023-05-10T02:17:11;99416.75;;;11.29;57.06
49341;BME280;35209;51.050;13.678;2023-05-10T02:22:14;99411.34;;;11.32;57.02
49341;BME280;35209;51.050;13.678;2023-05-10T02:27:18;99406.44;;;11.25;57.41
49341;BME280;35209;51.050;13.678;2023-05-10T02:32:22;99410.66;;;11.08;57.76
49341;BME280;35209;51.050;13.678;2023-05-10T02:37:26;99411.41;;;11.31;57.04
49341;BME280;35209;51.050;13.678;2023-05-10T02:42:31;99403.81;;;11.04;58.21
49341;BME280;35209;51.050;13.678;2023-05-10T02:47:34;99402.53;;;10.94;58.89
49341;BME280;35209;51.050;13.678;2023-05-10T02:52:42;99404.22;;;10.75;59.75
49341;BME280;35209;51.050;13.678;2023-05-10T02:57:52;99403.63;;;10.89;60.06
49341;BME280;35209;51.050;13.678;2023-05-10T03:02:55;99406.56;;;10.60;60.46
49341;BME280;35209;51.050;13.678;2023-05-10T03:07:57;99401.97;;;10.66;60.93
49341;BME280;35209;51.050;13.678;2023-05-10T03:13:10;99413.50;;;10.63;61.28
49341;BME280;35209;51.050;13.678;2023-05-10T03:18:22;99409.28;;;10.59;61.16
49341;BME280;35209;51.050;13.678;2023-05-10T03:23:40;99403.78;;;10.43;61.83
49341;BME280;35209;51.050;13.678;2023-05-10T03:28:43;99391.50;;;10.44;62.59
49341;BME280;35209;51.050;13.678;2023-05-10T03:33:49;99394.09;;;10.45;62.70
49341;BME280;35209;51.050;13.678;2023-05-10T03:38:56;99389.78;;;10.43;62.74
49341;BME280;35209;51.050;13.678;2023-05-10T03:43:58;99396.75;;;10.44;62.82
49341;BME280;35209;51.050;13.678;2023-05-10T03:49:00;99412.41;;;10.25;63.10
49341;BME280;35209;51.050;13.678;2023-05-10T03:54:02;99410.47;;;10.30;63.63
49341;BME280;35209;51.050;13.678;2023-05-10T03:59:04;99409.00;;;10.45;63.15
49341;BME280;35209;51.050;13.678;2023-05-10T04:04:09;99417.38;;;10.32;63.79
49341;BME280;35209;51.050;13.678;2023-05-10T04:09:11;99412.41;;;10.47;64.09
49341;BME280;35209;51.050;13.678;2023-05-10T04:14:13;99416.16;;;10.61;63.50
49341;BME280;35209;51.050;13.678;2023-05-10T04:19:14;99407.50;;;10.59;63.40
49341;BME280;35209;51.050;13.678;2023-05-10T04:24:16;99399.69;;;10.78;63.13
49341;BME280;35209;51.050;13.678;2023-05-10T04:29:18;99402.56;;;10.93;62.60
49341;BME280;35209;51.050;13.678;2023-05-10T04:34:20;99401.34;;;10.81;63.41
49341;BME280;35209;51.050;13.678;2023-05-10T04:39:22;99405.47;;;11.07;62.35
49341;BME280;35209;51.050;13.678;2023-05-10T04:44:24;99392.66;;;10.99;62.17
49341;BME280;35209;51.050;13.678;2023-05-10T04:49:25;99382.78;;;11.44;60.52
49341;BME280;35209;51.050;13.678;2023-05-10T04:54:27;99389.09;;;11.58;60.36
49341;BME280;35209;51.050;13.678;2023-05-10T04:59:31;99387.59;;;11.72;60.30
49341;BME280;35209;51.050;13.678;2023-05-10T05:04:33;99382.44;;;11.89;59.66
49341;BME280;35209;51.050;13.678;2023-05-10T05:09:34;99382.13;;;12.14;58.86
49341;BME280;35209;51.050;13.678;2023-05-10T05:14:36;99386.56;;;12.31;58.61
49341;BME280;35209;51.050;13.678;2023-05-10T05:19:38;99386.56;;;12.48;57.13
49341;BME280;35209;51.050;13.678;2023-05-10T05:24:39;99397.69;;;12.55;57.76
49341;BME280;35209;51.050;13.678;2023-05-10T05:29:41;99393.34;;;12.71;57.19
49341;BME280;35209;51.050;13.678;2023-05-10T05:34:44;99385.19;;;12.93;56.80
49341;BME280;35209;51.050;13.678;2023-05-10T05:39:46;99380.44;;;13.00;57.11
49341;BME280;35209;51.050;13.678;2023-05-10T05:44:51;99391.19;;;13.12;57.18
49341;BME280;35209;51.050;13.678;2023-05-10T05:50:10;99385.63;;;13.52;55.13
49341;BME280;35209;51.050;13.678;2023-05-10T05:55:12;99389.56;;;14.08;53.46
49341;BME280;35209;51.050;13.678;2023-05-10T06:00:14;99394.03;;;14.53;52.91
49341;BME280;35209;51.050;13.678;2023-05-10T06:05:16;99398.63;;;15.10;51.17
49341;BME280;35209;51.050;13.678;2023-05-10T06:10:18;99400.25;;;15.41;49.48
49341;BME280;35209;51.050;13.678;2023-05-10T06:15:19;99388.03;;;15.81;48.09
49341;BME280;35209;51.050;13.678;2023-05-10T06:20:21;99405.22;;;16.30;46.96
49341;BME280;35209;51.050;13.678;2023-05-10T06:25:23;99399.09;;;16.69;46.06
49341;BME280;35209;51.050;13.678;2023-05-10T06:30:25;99409.22;;;16.77;47.17
49341;BME280;35209;51.050;13.678;2023-05-10T06:35:30;99401.50;;;17.12;45.25
49341;BME280;35209;51.050;13.678;2023-05-10T06:40:34;99407.59;;;17.27;45.58
49341;BME280;35209;51.050;13.678;2023-05-10T06:45:37;99410.53;;;17.48;43.61
49341;BME280;35209;51.050;13.678;2023-05-10T06:50:39;99400.22;;;17.56;44.95
49341;BME280;35209;51.050;13.678;2023-05-10T06:55:40;99402.78;;;17.32;45.17
49341;BME280;35209;51.050;13.678;2023-05-10T07:00:42;99406.34;;;17.69;44.77
49341;BME280;35209;51.050;13.678;2023-05-10T07:05:45;99407.22;;;17.82;43.75
49341;BME280;35209;51.050;13.678;2023-05-10T07:10:48;99399.03;;;17.60;42.92
49341;BME280;35209;51.050;13.678;2023-05-10T07:15:49;99413.81;;;17.89;44.69
49341;BME280;35209;51.050;13.678;2023-05-10T07:20:51;99415.00;;;18.09;43.21
49341;BME280;35209;51.050;13.678;2023-05-10T07:25:53;99400.38;;;17.91;42.84
49341;BME280;35209;51.050;13.678;2023-05-10T07:30:54;99402.84;;;18.18;43.26
49341;BME280;35209;51.050;13.678;2023-05-10T07:35:56;99408.00;;;18.32;42.88
49341;BME280;35209;51.050;13.678;2023-05-10T07:40:58;99412.69;;;18.77;42.01
49341;BME280;35209;51.050;13.678;2023-05-10T07:46:00;99413.47;;;18.90;41.61
49341;BME280;35209;51.050;13.678;2023-05-10T07:51:02;99416.09;;;19.14;43.18
49341;BME280;35209;51.050;13.678;2023-05-10T07:56:39;99415.00;;;19.16;41.64
49341;BME280;35209;51.050;13.678;2023-05-10T08:01:46;99408.13;;;19.48;41.54
49341;BME280;35209;51.050;13.678;2023-05-10T08:06:47;99408.44;;;19.09;42.33
49341;BME280;35209;51.050;13.678;2023-05-10T08:11:49;99414.41;;;19.13;43.23
49341;BME280;35209;51.050;13.678;2023-05-10T08:16:52;99408.97;;;19.26;41.53
49341;BME280;35209;51.050;13.678;2023-05-10T08:21:53;99402.06;;;19.46;42.11
49341;BME280;35209;51.050;13.678;2023-05-10T08:26:56;99407.88;;;19.28;43.05
49341;BME280;35209;51.050;13.678;2023-05-10T08:31:58;99415.16;;;19.49;40.85
49341;BME280;35209;51.050;13.678;2023-05-10T08:37:00;99411.41;;;20.07;39.98
49341;BME280;35209;51.050;13.678;2023-05-10T08:42:04;99422.44;;;19.91;41.64
49341;BME280;35209;51.050;13.678;2023-05-10T08:47:06;99432.38;;;20.01;42.28
49341;BME280;35209;51.050;13.678;2023-05-10T08:52:12;99435.28;;;20.09;40.05
49341;BME280;35209;51.050;13.678;2023-05-10T08:57:16;99437.78;;;20.33;41.52
49341;BME280;35209;51.050;13.678;2023-05-10T09:02:18;99439.06;;;20.61;38.91
49341;BME280;35209;51.050;13.678;2023-05-10T09:07:20;99439.69;;;20.53;42.34
49341;BME280;35209;51.050;13.678;2023-05-10T09:12:22;99451.22;;;20.86;41.47
49341;BME280;35209;51.050;13.678;2023-05-10T09:17:25;99449.31;;;21.30;39.44
49341;BME280;35209;51.050;13.678;2023-05-10T09:22:27;99456.97;;;21.34;38.60
49341;BME280;35209;51.050;13.678;2023-05-10T09:27:28;99453.09;;;21.48;39.83
49341;BME280;35209;51.050;13.678;2023-05-10T09:32:41;99451.38;;;22.08;40.29
49341;BME280;35209;51.050;13.678;2023-05-10T09:37:45;99457.09;;;22.25;38.31
49341;BME280;35209;51.050;13.678;2023-05-10T09:42:55;99463.28;;;22.25;38.90
49341;BME280;35209;51.050;13.678;2023-05-10T09:47:58;99460.25;;;22.49;39.43
49341;BME280;35209;51.050;13.678;2023-05-10T09:53:02;99455.19;;;22.85;39.21
49341;BME280;35209;51.050;13.678;2023-05-10T09:58:05;99463.06;;;23.45;35.73
49341;BME280;35209;51.050;13.678;2023-05-10T10:03:16;99462.81;;;23.19;38.29
49341;BME280;35209;51.050;13.678;2023-05-10T10:08:18;99461.25;;;23.06;37.06
49341;BME280;35209;51.050;13.678;2023-05-10T10:13:20;99448.56;;;22.89;39.71
49341;BME280;35209;51.050;13.678;2023-05-10T10:18:22;99451.94;;;22.81;38.23
49341;BME280;35209;51.050;13.678;2023-05-10T10:23:28;99450.69;;;22.85;37.82
49341;BME280;35209;51.050;13.678;2023-05-10T10:28:42;99452.22;;;22.49;39.12
49341;BME280;35209;51.050;13.678;2023-05-10T10:33:56;99453.22;;;22.77;39.77
49341;BME280;35209;51.050;13.678;2023-05-10T10:39:01;99443.91;;;22.81;38.71
49341;BME280;35209;51.050;13.678;2023-05-10T10:50:27;99459.41;;;22.78;40.20
49341;BME280;35209;51.050;13.678;2023-05-10T10:55:29;99464.09;;;22.76;38.34
49341;BME280;35209;51.050;13.678;2023-05-10T11:00:34;99462.56;;;23.02;38.19
49341;BME280;35209;51.050;13.678;2023-05-10T11:05:43;99453.81;;;22.90;36.95
49341;BME280;35209;51.050;13.678;2023-05-10T11:10:51;99460.53;;;22.75;37.83
49341;BME280;35209;51.050;13.678;2023-05-10T11:15:53;99464.66;;;23.08;39.15
49341;BME280;35209;51.050;13.678;2023-05-10T11:20:58;99461.09;;;23.37;38.52
49341;BME280;35209;51.050;13.678;2023-05-10T11:26:01;99467.06;;;23.02;38.68
49341;BME280;35209;51.050;13.678;2023-05-10T11:31:04;99470.63;;;23.59;36.92
49341;BME280;35209;51.050;13.678;2023-05-10T11:36:10;99462.69;;;23.77;36.45
49341;BME280;35209;51.050;13.678;2023-05-10T11:41:13;99465.03;;;23.52;36.57
49341;BME280;35209;51.050;13.678;2023-05-10T11:46:16;99474.88;;;23.61;35.87
49341;BME280;35209;51.050;13.678;2023-05-10T11:51:20;99469.03;;;23.29;37.10
49341;BME280;35209;51.050;13.678;2023-05-10T11:56:22;99472.97;;;23.34;37.14
49341;BME280;35209;51.050;13.678;2023-05-10T12:01:26;99479.00;;;23.46;36.67
49341;BME280;35209;51.050;13.678;2023-05-10T12:06:30;99482.53;;;23.37;37.17
49341;BME280;35209;51.050;13.678;2023-05-10T12:11:39;99476.91;;;23.30;36.33
49341;BME280;35209;51.050;13.678;2023-05-10T12:16:45;99478.63;;;23.12;37.97
49341;BME280;35209;51.050;13.678;2023-05-10T12:21:51;99484.28;;;22.89;38.08
49341;BME280;35209;51.050;13.678;2023-05-10T12:26:53;99487.88;;;23.66;36.13
49341;BME280;35209;51.050;13.678;2023-05-10T12:31:59;99486.66;;;23.22;38.49
49341;BME280;35209;51.050;13.678;2023-05-10T12:37:04;99483.56;;;23.16;36.85
49341;BME280;35209;51.050;13.678;2023-05-10T12:42:09;99493.97;;;22.81;37.50
49341;BME280;35209;51.050;13.678;2023-05-10T12:47:11;99491.84;;;22.65;37.17
49341;BME280;35209;51.050;13.678;2023-05-10T12:52:13;99492.25;;;22.70;37.18
49341;BME280;35209;51.050;13.678;2023-05-10T12:57:17;99496.00;;;22.98;37.59
49341;BME280;35209;51.050;13.678;2023-05-10T13:02:18;99506.38;;;22.62;35.67
49341;BME280;35209;51.050;13.678;2023-05-10T13:07:21;99500.31;;;21.89;35.67
49341;BME280;35209;51.050;13.678;2023-05-10T13:12:24;99511.03;;;21.89;36.90
49341;BME280;35209;51.050;13.678;2023-05-10T13:17:25;99502.44;;;22.16;36.68
49341;BME280;35209;51.050;13.678;2023-05-10T13:22:27;99500.69;;;22.36;35.95
49341;BME280;35209;51.050;13.678;2023-05-10T13:27:40;99506.28;;;22.24;37.35
49341;BME280;35209;51.050;13.678;2023-05-10T13:32:42;99510.66;;;22.34;35.92
49341;BME280;35209;51.050;13.678;2023-05-10T13:37:44;99499.34;;;22.21;37.50
49341;BME280;35209;51.050;13.678;2023-05-10T13:42:45;99496.75;;;22.40;38.13
49341;BME280;35209;51.050;13.678;2023-05-10T13:47:47;99493.41;;;22.17;40.12
49341;BME280;35209;51.050;13.678;2023-05-10T13:52:48;99504.22;;;22.56;36.46
49341;BME280;35209;51.050;13.678;2023-05-10T13:57:50;99498.25;;;22.24;43.06
49341;BME280;35209;51.050;13.678;2023-05-10T14:02:54;99511.88;;;21.90;45.43
49341;BME280;35209;51.050;13.678;2023-05-10T14:07:56;99500.56;;;21.35;45.93
49341;BME280;35209;51.050;13.678;2023-05-10T14:12:58;99493.81;;;20.99;47.12
49341;BME280;35209;51.050;13.678;2023-05-10T14:18:00;99505.91;;;21.35;46.31
49341;BME280;35209;51.050;13.678;2023-05-10T14:23:02;99498.31;;;21.82;45.61
49341;BME280;35209;51.050;13.678;2023-05-10T14:28:04;99491.63;;;21.66;45.99
49341;BME280;35209;51.050;13.678;2023-05-10T14:33:06;99492.75;;;21.43;45.36
49341;BME280;35209;51.050;13.678;2023-05-10T14:38:09;99498.19;;;21.21;47.41
49341;BME280;35209;51.050;13.678;2023-05-10T14:43:12;99488.22;;;21.23;47.47
49341;BME280;35209;51.050;13.678;2023-05-10T14:48:13;99489.69;;;20.95;49.72
49341;BME280;35209;51.050;13.678;2023-05-10T14:53:18;99488.63;;;20.86;51.16
49341;BME280;35209;51.050;13.678;2023-05-10T14:58:20;99496.75;;;20.41;52.86
49341;BME280;35209;51.050;13.678;2023-05-10T15:03:21;99508.41;;;20.29;53.14
49341;BME280;35209;51.050;13.678;2023-05-10T15:08:24;99512.56;;;19.88;55.20
49341;BME280;35209;51.050;13.678;2023-05-10T15:13:26;99505.84;;;20.05;54.56
49341;BME280;35209;51.050;13.678;2023-05-10T15:18:27;99511.19;;;19.82;55.03
49341;BME280;35209;51.050;13.678;2023-05-10T15:23:29;99510.34;;;20.04;54.26
49341;BME280;35209;51.050;13.678;2023-05-10T15:28:31;99523.22;;;20.10;54.63
49341;BME280;35209;51.050;13.678;2023-05-10T15:33:37;99521.00;;;19.82;54.03
49341;BME280;35209;51.050;13.678;2023-05-10T15:38:39;99519.75;;;19.52;57.11
49341;BME280;35209;51.050;13.678;2023-05-10T15:43:41;99524.41;;;19.37;56.13
49341;BME280;35209;51.050;13.678;2023-05-10T15:48:43;99529.94;;;19.23;56.59
49341;BME280;35209;51.050;13.678;2023-05-10T15:53:45;99523.09;;;19.08;57.68
49341;BME280;35209;51.050;13.678;2023-05-10T15:59:06;99527.97;;;18.66;58.48
49341;BME280;35209;51.050;13.678;2023-05-10T16:04:09;99532.13;;;18.70;60.03
49341;BME280;35209;51.050;13.678;2023-05-10T16:09:10;99527.50;;;18.48;60.21
49341;BME280;35209;51.050;13.678;2023-05-10T16:14:12;99530.38;;;18.45;60.08
49341;BME280;35209;51.050;13.678;2023-05-10T16:19:14;99530.63;;;18.29;60.15
49341;BME280;35209;51.050;13.678;2023-05-10T16:24:16;99536.19;;;18.13;61.06
49341;BME280;35209;51.050;13.678;2023-05-10T16:29:18;99540.00;;;18.09;60.80
49341;BME280;35209;51.050;13.678;2023-05-10T16:34:19;99542.69;;;18.09;60.90
49341;BME280;35209;51.050;13.678;2023-05-10T16:39:24;99546.16;;;18.35;59.75
49341;BME280;35209;51.050;13.678;2023-05-10T16:44:26;99553.63;;;18.05;60.28
49341;BME280;35209;51.050;13.678;2023-05-10T16:49:28;99557.72;;;17.85;60.80
49341;BME280;35209;51.050;13.678;2023-05-10T16:54:30;99567.59;;;17.96;61.26
49341;BME280;35209;51.050;13.678;2023-05-10T16:59:31;99573.34;;;17.89;61.33
49341;BME280;35209;51.050;13.678;2023-05-10T17:04:33;99565.56;;;17.99;61.21
49341;BME280;35209;51.050;13.678;2023-05-10T17:09:35;99574.59;;;17.97;61.30
49341;BME280;35209;51.050;13.678;2023-05-10T17:14:37;99580.22;;;17.92;63.02
49341;BME280;35209;51.050;13.678;2023-05-10T17:19:39;99587.59;;;17.88;62.32
49341;BME280;35209;51.050;13.678;2023-05-10T17:24:40;99585.84;;;17.75;62.73
49341;BME280;35209;51.050;13.678;2023-05-10T17:29:42;99586.09;;;17.84;61.75
49341;BME280;35209;51.050;13.678;2023-05-10T17:34:44;99592.56;;;17.28;65.16
49341;BME280;35209;51.050;13.678;2023-05-10T17:39:45;99587.31;;;17.26;65.67
49341;BME280;35209;51.050;13.678;2023-05-10T17:44:47;99600.72;;;17.25;67.10
49341;BME280;35209;51.050;13.678;2023-05-10T17:49:49;99605.19;;;16.97;70.33
49341;BME280;35209;51.050;13.678;2023-05-10T17:54:50;99608.56;;;17.13;70.32
49341;BME280;35209;51.050;13.678;2023-05-10T17:59:52;99616.88;;;16.80;72.20
49341;BME280;35209;51.050;13.678;2023-05-10T18:04:54;99607.84;;;16.97;71.69
49341;BME280;35209;51.050;13.678;2023-05-10T18:10:00;99623.78;;;16.97;71.04
49341;BME280;35209;51.050;13.678;2023-05-10T18:15:01;99624.50;;;16.72;71.96
49341;BME280;35209;51.050;13.678;2023-05-10T18:20:04;99634.25;;;16.57;73.10
49341;BME280;35209;51.050;13.678;2023-05-10T18:25:06;99632.81;;;16.37;73.50
49341;BME280;35209;51.050;13.678;2023-05-10T18:30:08;99632.53;;;16.28;74.64
49341;BME280;35209;51.050;13.678;2023-05-10T18:35:12;99638.91;;;16.39;73.63
49341;BME280;35209;51.050;13.678;2023-05-10T18:40:16;99638.22;;;16.64;72.50
49341;BME280;35209;51.050;13.678;2023-05-10T18:45:18;99640.59;;;16.40;73.71
49341;BME280;35209;51.050;13.678;2023-05-10T18:50:27;99646.66;;;16.28;74.92
49341;BME280;35209;51.050;13.678;2023-05-10T18:55:57;99653.88;;;16.26;74.90
49341;BME280;35209;51.050;13.678;2023-05-10T19:01:00;99658.88;;;16.17;75.84
49341;BME280;35209;51.050;13.678;2023-05-10T19:06:04;99660.19;;;16.09;76.67
49341;BME280;35209;51.050;13.678;2023-05-10T19:11:05;99662.28;;;16.19;75.64
49341;BME280;35209;51.050;13.678;2023-05-10T19:16:12;99680.66;;;16.22;75.76
49341;BME280;35209;51.050;13.678;2023-05-10T19:21:15;99677.44;;;16.31;75.57
49341;BME280;35209;51.050;13.678;2023-05-10T19:26:17;99687.56;;;16.24;76.09
49341;BME280;35209;51.050;13.678;2023-05-10T19:31:20;99688.38;;;15.96;78.11
49341;BME280;35209;51.050;13.678;2023-05-10T19:36:22;99687.78;;;16.21;77.17
49341;BME280;35209;51.050;13.678;2023-05-10T19:41:24;99680.25;;;15.99;78.37
49341;BME280;35209;51.050;13.678;2023-05-10T19:46:26;99693.78;;;15.95;79.44
49341;BME280;35209;51.050;13.678;2023-05-10T19:51:28;99683.38;;;16.06;78.62
49341;BME280;35209;51.050;13.678;2023-05-10T19:56:29;99685.41;;;15.72;81.06
49341;BME280;35209;51.050;13.678;2023-05-10T20:01:31;99679.00;;;15.45;82.96
49341;BME280;35209;51.050;13.678;2023-05-10T20:06:34;99690.72;;;15.41;83.47
49341;BME280;35209;51.050;13.678;2023-05-10T20:11:36;99689.16;;;15.68;81.59
49341;BME280;35209;51.050;13.678;2023-05-10T20:16:37;99688.84;;;15.43;83.73
49341;BME280;35209;51.050;13.678;2023-05-10T20:21:39;99682.69;;;15.42;84.45
49341;BME280;35209;51.050;13.678;2023-05-10T20:26:41;99689.78;;;14.94;87.38
49341;BME280;35209;51.050;13.678;2023-05-10T20:31:43;99695.69;;;14.83;87.96
49341;BME280;35209;51.050;13.678;2023-05-10T20:36:44;99690.91;;;15.06;87.80
49341;BME280;35209;51.050;13.678;2023-05-10T20:41:46;99683.53;;;14.63;90.46
49341;BME280;35209;51.050;13.678;2023-05-10T20:46:48;99696.31;;;14.55;90.03
49341;BME280;35209;51.050;13.678;2023-05-10T20:51:50;99693.66;;;14.55;90.04
49341;BME280;35209;51.050;13.678;2023-05-10T20:56:52;99694.84;;;14.50;89.66
49341;BME280;35209;51.050;13.678;2023-05-10T21:01:53;99697.16;;;14.38;90.85
49341;BME280;35209;51.050;13.678;2023-05-10T21:06:56;99690.03;;;14.23;91.74
49341;BME280;35209;51.050;13.678;2023-05-10T21:11:58;99696.16;;;14.41;92.50
49341;BME280;35209;51.050;13.678;2023-05-10T21:17:00;99692.97;;;14.52;92.54
49341;BME280;35209;51.050;13.678;2023-05-10T21:22:01;99700.59;;;14.41;92.21
49341;BME280;35209;51.050;13.678;2023-05-10T21:27:03;99700.41;;;14.10;94.48
49341;BME280;35209;51.050;13.678;2023-05-10T21:32:05;99692.81;;;13.87;96.60
49341;BME280;35209;51.050;13.678;2023-05-10T21:37:07;99701.81;;;13.83;97.32
49341;BME280;35209;51.050;13.678;2023-05-10T21:42:08;99696.03;;;13.57;98.40
49341;BME280;35209;51.050;13.678;2023-05-10T21:47:10;99703.84;;;13.78;97.93
49341;BME280;35209;51.050;13.678;2023-05-10T21:52:12;99696.50;;;13.66;98.84
49341;BME280;35209;51.050;13.678;2023-05-10T21:57:13;99702.63;;;13.49;98.92
49341;BME280;35209;51.050;13.678;2023-05-10T22:02:15;99706.25;;;13.29;100.00
49341;BME280;35209;51.050;13.678;2023-05-10T22:07:17;99709.38;;;13.37;98.86
49341;BME280;35209;51.050;13.678;2023-05-10T22:12:18;99704.09;;;13.37;100.00
49341;BME280;35209;51.050;13.678;2023-05-10T22:17:20;99708.50;;;13.18;100.00
49341;BME280;35209;51.050;13.678;2023-05-10T22:22:22;99708.94;;;13.08;100.00
49341;BME280;35209;51.050;13.678;2023-05-10T22:27:24;99714.34;;;13.05;100.00
49341;BME280;35209;51.050;13.678;2023-05-10T22:32:29;99710.50;;;12.75;100.00
49341;BME280;35209;51.050;13.678;2023-05-10T22:37:31;99712.22;;;12.76;100.00
49341;BME280;35209;51.050;13.678;2023-05-10T22:42:33;99709.06;;;13.05;100.00
49341;BME280;35209;51.050;13.678;2023-05-10T22:47:35;99706.81;;;12.98;100.00
49341;BME280;35209;51.050;13.678;2023-05-10T22:52:37;99713.13;;;12.75;100.00
49341;BME280;35209;51.050;13.678;2023-05-10T22:57:39;99716.34;;;13.00;100.00
49341;BME280;35209;51.050;13.678;2023-05-10T23:02:41;99718.19;;;12.60;100.00
49341;BME280;35209;51.050;13.678;2023-05-10T23:07:43;99725.38;;;12.57;100.00
49341;BME280;35209;51.050;13.678;2023-05-10T23:12:45;99717.00;;;12.47;100.00
49341;BME280;35209;51.050;13.678;2023-05-10T23:17:46;99723.22;;;12.46;100.00
49341;BME280;35209;51.050;13.678;2023-05-10T23:22:48;99724.00;;;12.48;100.00
49341;BME280;35209;51.050;13.678;2023-05-10T23:27:50;99715.03;;;12.52;100.00
49341;BME280;35209;51.050;13.678;2023-05-10T23:32:51;99714.91;;;12.55;100.00
49341;BME280;35209;51.050;13.678;2023-05-10T23:37:53;99721.63;;;13.00;100.00
49341;BME280;35209;51.050;13.678;2023-05-10T23:42:55;99719.06;;;12.99;100.00
49341;BME280;35209;51.050;13.678;2023-05-10T23:47:57;99717.19;;;13.01;100.00
49341;BME280;35209;51.050;13.678;2023-05-10T23:52:58;99719.28;;;12.94;100.00
49341;BME280;35209;51.050;13.678;2023-05-10T23:58:00;99708.16;;;12.87;100.00
